sensor_id;sensor_type;location;lat;lon;timestamp;temperature;humidity
37276;DHT22;23166;51.150;21.620;2022-08-02T00:01:41;18.50;99.90
37276;DHT22;23166;51.150;21.620;2022-08-02T00:04:08;18.50;99.90
37276;DHT22;23166;51.150;21.620;2022-08-02T00:06:34;18.50;99.90
37276;DHT22;23166;51.150;21.620;2022-08-02T00:09:03;18.40;99.90
37276;DHT22;23166;51.150;21.620;2022-08-02T00:11:30;18.40;99.90
37276;DHT22;23166;51.150;21.620;2022-08-02T00:13:57;18.40;99.90
37276;DHT22;23166;51.150;21.620;2022-08-02T00:16:23;18.40;99.90
37276;DHT22;23166;51.150;21.620;2022-08-02T00:18:50;18.30;99.90
37276;DHT22;23166;51.150;21.620;2022-08-02T00:21:16;18.30;99.90
37276;DHT22;23166;51.150;21.620;2022-08-02T00:23:43;18.30;99.90
37276;DHT22;23166;51.150;21.620;2022-08-02T00:26:09;18.30;99.90
37276;DHT22;23166;51.150;21.620;2022-08-02T00:28:35;18.30;99.90
37276;DHT22;23166;51.150;21.620;2022-08-02T00:31:02;18.30;99.90
37276;DHT22;23166;51.150;21.620;2022-08-02T00:33:28;18.30;99.90
37276;DHT22;23166;51.150;21.620;2022-08-02T00:35:54;18.30;99.90
37276;DHT22;23166;51.150;21.620;2022-08-02T00:38:21;18.30;99.90
37276;DHT22;23166;51.150;21.620;2022-08-02T00:40:50;18.30;99.90
37276;DHT22;23166;51.150;21.620;2022-08-02T00:43:17;18.20;99.90
37276;DHT22;23166;51.150;21.620;2022-08-02T00:45:44;18.20;99.90
37276;DHT22;23166;51.150;21.620;2022-08-02T00:48:11;18.20;99.90
37276;DHT22;23166;51.150;21.620;2022-08-02T00:50:38;18.20;99.90
37276;DHT22;23166;51.150;21.620;2022-08-02T00:53:06;18.20;99.90
37276;DHT22;23166;51.150;21.620;2022-08-02T00:55:35;18.10;99.90
37276;DHT22;23166;51.150;21.620;2022-08-02T00:58:02;18.10;99.90
37276;DHT22;23166;51.150;21.620;2022-08-02T01:00:29;18.10;99.90
37276;DHT22;23166;51.150;21.620;2022-08-02T01:02:55;18.10;99.90
37276;DHT22;23166;51.150;21.620;2022-08-02T01:05:22;18.00;99.90
37276;DHT22;23166;51.150;21.620;2022-08-02T01:07:48;18.00;99.90
37276;DHT22;23166;51.150;21.620;2022-08-02T01:10:14;18.00;99.90
37276;DHT22;23166;51.150;21.620;2022-08-02T01:12:41;17.90;99.90
37276;DHT22;23166;51.150;21.620;2022-08-02T01:15:09;17.90;99.90
37276;DHT22;23166;51.150;21.620;2022-08-02T01:31:13;17.70;99.90
37276;DHT22;23166;51.150;21.620;2022-08-02T01:33:55;17.70;99.90
37276;DHT22;23166;51.150;21.620;2022-08-02T01:36:20;17.70;99.90
37276;DHT22;23166;51.150;21.620;2022-08-02T01:38:49;17.60;99.90
37276;DHT22;23166;51.150;21.620;2022-08-02T01:41:19;17.60;99.90
37276;DHT22;23166;51.150;21.620;2022-08-02T01:43:48;17.60;99.90
37276;DHT22;23166;51.150;21.620;2022-08-02T01:46:16;17.50;99.90
37276;DHT22;23166;51.150;21.620;2022-08-02T01:48:44;17.50;99.90
37276;DHT22;23166;51.150;21.620;2022-08-02T01:51:14;17.50;99.90
37276;DHT22;23166;51.150;21.620;2022-08-02T01:53:43;17.50;99.90
37276;DHT22;23166;51.150;21.620;2022-08-02T01:56:11;17.50;99.90
37276;DHT22;23166;51.150;21.620;2022-08-02T01:58:40;17.50;99.90
37276;DHT22;23166;51.150;21.620;2022-08-02T02:01:08;17.50;99.90
37276;DHT22;23166;51.150;21.620;2022-08-02T02:03:37;17.50;99.90
37276;DHT22;23166;51.150;21.620;2022-08-02T02:06:06;17.50;99.90
37276;DHT22;23166;51.150;21.620;2022-08-02T02:08:39;17.50;99.90
37276;DHT22;23166;51.150;21.620;2022-08-02T02:11:06;17.60;99.90
37276;DHT22;23166;51.150;21.620;2022-08-02T02:13:35;17.60;99.90
37276;DHT22;23166;51.150;21.620;2022-08-02T02:16:03;17.60;99.90
37276;DHT22;23166;51.150;21.620;2022-08-02T02:18:33;17.60;99.90
37276;DHT22;23166;51.150;21.620;2022-08-02T02:21:03;17.60;99.90
37276;DHT22;23166;51.150;21.620;2022-08-02T02:23:29;17.60;99.90
37276;DHT22;23166;51.150;21.620;2022-08-02T02:25:56;17.70;99.90
37276;DHT22;23166;51.150;21.620;2022-08-02T02:28:29;17.70;99.90
37276;DHT22;23166;51.150;21.620;2022-08-02T02:31:05;17.70;99.90
37276;DHT22;23166;51.150;21.620;2022-08-02T02:33:39;17.70;99.90
37276;DHT22;23166;51.150;21.620;2022-08-02T02:36:02;17.70;99.90
37276;DHT22;23166;51.150;21.620;2022-08-02T02:38:30;17.70;99.90
37276;DHT22;23166;51.150;21.620;2022-08-02T02:41:00;17.70;99.90
37276;DHT22;23166;51.150;21.620;2022-08-02T02:43:27;17.60;99.90
37276;DHT22;23166;51.150;21.620;2022-08-02T02:45:56;17.60;99.90
37276;DHT22;23166;51.150;21.620;2022-08-02T02:48:24;17.60;99.90
37276;DHT22;23166;51.150;21.620;2022-08-02T02:50:53;17.60;99.90
37276;DHT22;23166;51.150;21.620;2022-08-02T02:53:19;17.60;99.90
37276;DHT22;23166;51.150;21.620;2022-08-02T02:55:48;17.60;99.90
37276;DHT22;23166;51.150;21.620;2022-08-02T02:58:15;17.60;99.90
37276;DHT22;23166;51.150;21.620;2022-08-02T03:00:41;17.70;99.90
37276;DHT22;23166;51.150;21.620;2022-08-02T03:03:27;17.70;99.90
37276;DHT22;23166;51.150;21.620;2022-08-02T03:05:54;17.60;99.90
37276;DHT22;23166;51.150;21.620;2022-08-02T03:08:21;17.70;99.90
37276;DHT22;23166;51.150;21.620;2022-08-02T03:10:47;17.70;99.90
37276;DHT22;23166;51.150;21.620;2022-08-02T03:13:14;17.80;99.90
37276;DHT22;23166;51.150;21.620;2022-08-02T03:15:41;17.70;99.90
37276;DHT22;23166;51.150;21.620;2022-08-02T03:18:08;17.80;99.90
37276;DHT22;23166;51.150;21.620;2022-08-02T03:20:34;17.80;99.90
37276;DHT22;23166;51.150;21.620;2022-08-02T03:23:01;17.80;99.90
37276;DHT22;23166;51.150;21.620;2022-08-02T03:25:27;17.80;99.90
37276;DHT22;23166;51.150;21.620;2022-08-02T03:27:54;17.80;99.90
37276;DHT22;23166;51.150;21.620;2022-08-02T03:30:20;17.80;99.90
37276;DHT22;23166;51.150;21.620;2022-08-02T03:32:49;17.80;99.90
37276;DHT22;23166;51.150;21.620;2022-08-02T03:35:17;17.70;99.90
37276;DHT22;23166;51.150;21.620;2022-08-02T03:37:44;17.70;99.90
37276;DHT22;23166;51.150;21.620;2022-08-02T03:40:12;17.70;99.90
37276;DHT22;23166;51.150;21.620;2022-08-02T03:42:39;17.70;99.90
37276;DHT22;23166;51.150;21.620;2022-08-02T03:45:08;17.70;99.90
37276;DHT22;23166;51.150;21.620;2022-08-02T03:47:37;17.70;99.90
37276;DHT22;23166;51.150;21.620;2022-08-02T03:50:06;17.80;99.90
37276;DHT22;23166;51.150;21.620;2022-08-02T03:52:33;17.80;99.90
37276;DHT22;23166;51.150;21.620;2022-08-02T03:55:01;17.80;99.90
37276;DHT22;23166;51.150;21.620;2022-08-02T03:57:27;17.80;99.90
37276;DHT22;23166;51.150;21.620;2022-08-02T03:59:54;17.80;99.90
37276;DHT22;23166;51.150;21.620;2022-08-02T04:02:20;17.80;99.90
37276;DHT22;23166;51.150;21.620;2022-08-02T04:04:46;17.90;99.90
37276;DHT22;23166;51.150;21.620;2022-08-02T04:07:13;18.00;99.90
37276;DHT22;23166;51.150;21.620;2022-08-02T04:09:39;18.00;99.90
37276;DHT22;23166;51.150;21.620;2022-08-02T04:12:06;18.10;99.90
37276;DHT22;23166;51.150;21.620;2022-08-02T04:14:32;18.20;99.90
37276;DHT22;23166;51.150;21.620;2022-08-02T04:17:01;18.30;99.90
37276;DHT22;23166;51.150;21.620;2022-08-02T04:19:37;18.30;99.90
37276;DHT22;23166;51.150;21.620;2022-08-02T04:22:01;18.40;99.90
37276;DHT22;23166;51.150;21.620;2022-08-02T04:24:33;18.50;99.90
37276;DHT22;23166;51.150;21.620;2022-08-02T04:27:00;18.60;99.90
37276;DHT22;23166;51.150;21.620;2022-08-02T04:29:28;18.60;99.90
37276;DHT22;23166;51.150;21.620;2022-08-02T04:31:55;18.70;99.90
37276;DHT22;23166;51.150;21.620;2022-08-02T04:34:22;18.70;99.90
37276;DHT22;23166;51.150;21.620;2022-08-02T04:36:48;18.80;99.90
37276;DHT22;23166;51.150;21.620;2022-08-02T04:39:15;18.90;99.90
37276;DHT22;23166;51.150;21.620;2022-08-02T04:41:43;19.00;99.90
37276;DHT22;23166;51.150;21.620;2022-08-02T04:44:11;19.00;99.90
37276;DHT22;23166;51.150;21.620;2022-08-02T04:46:39;19.10;99.90
37276;DHT22;23166;51.150;21.620;2022-08-02T04:49:06;19.20;99.90
37276;DHT22;23166;51.150;21.620;2022-08-02T04:51:38;19.30;99.90
37276;DHT22;23166;51.150;21.620;2022-08-02T04:54:06;19.30;99.90
37276;DHT22;23166;51.150;21.620;2022-08-02T04:56:33;19.40;99.90
37276;DHT22;23166;51.150;21.620;2022-08-02T04:58:59;19.60;99.90
37276;DHT22;23166;51.150;21.620;2022-08-02T05:01:26;19.60;99.90
37276;DHT22;23166;51.150;21.620;2022-08-02T05:03:53;19.80;99.90
37276;DHT22;23166;51.150;21.620;2022-08-02T05:06:19;20.00;99.90
37276;DHT22;23166;51.150;21.620;2022-08-02T05:08:46;20.10;99.90
37276;DHT22;23166;51.150;21.620;2022-08-02T05:11:13;20.30;99.90
37276;DHT22;23166;51.150;21.620;2022-08-02T05:13:40;20.50;99.90
37276;DHT22;23166;51.150;21.620;2022-08-02T05:16:07;20.70;99.90
37276;DHT22;23166;51.150;21.620;2022-08-02T05:18:33;20.80;99.90
37276;DHT22;23166;51.150;21.620;2022-08-02T05:21:00;20.90;99.90
37276;DHT22;23166;51.150;21.620;2022-08-02T05:23:26;21.00;99.90
37276;DHT22;23166;51.150;21.620;2022-08-02T05:25:53;21.10;99.90
37276;DHT22;23166;51.150;21.620;2022-08-02T05:28:19;21.20;99.90
37276;DHT22;23166;51.150;21.620;2022-08-02T05:30:46;21.30;99.90
37276;DHT22;23166;51.150;21.620;2022-08-02T05:33:12;21.30;99.90
37276;DHT22;23166;51.150;21.620;2022-08-02T05:35:40;21.40;99.90
37276;DHT22;23166;51.150;21.620;2022-08-02T05:38:06;21.40;99.90
37276;DHT22;23166;51.150;21.620;2022-08-02T05:40:33;21.50;99.90
37276;DHT22;23166;51.150;21.620;2022-08-02T05:42:59;21.70;99.90
37276;DHT22;23166;51.150;21.620;2022-08-02T05:45:26;21.90;99.90
37276;DHT22;23166;51.150;21.620;2022-08-02T05:47:52;22.10;99.90
37276;DHT22;23166;51.150;21.620;2022-08-02T05:50:19;22.30;99.90
37276;DHT22;23166;51.150;21.620;2022-08-02T05:55:25;22.70;99.90
37276;DHT22;23166;51.150;21.620;2022-08-02T05:58:10;22.90;99.90
37276;DHT22;23166;51.150;21.620;2022-08-02T06:00:35;23.10;99.90
37276;DHT22;23166;51.150;21.620;2022-08-02T06:08:20;23.70;99.90
37276;DHT22;23166;51.150;21.620;2022-08-02T06:10:47;23.80;99.90
37276;DHT22;23166;51.150;21.620;2022-08-02T06:13:15;23.90;99.90
37276;DHT22;23166;51.150;21.620;2022-08-02T06:15:42;24.00;99.90
37276;DHT22;23166;51.150;21.620;2022-08-02T06:18:09;24.10;99.90
37276;DHT22;23166;51.150;21.620;2022-08-02T06:20:35;24.30;99.90
37276;DHT22;23166;51.150;21.620;2022-08-02T06:23:04;24.50;99.90
37276;DHT22;23166;51.150;21.620;2022-08-02T06:25:32;24.60;99.90
37276;DHT22;23166;51.150;21.620;2022-08-02T06:28:00;24.80;99.90
37276;DHT22;23166;51.150;21.620;2022-08-02T06:30:28;25.00;99.90
37276;DHT22;23166;51.150;21.620;2022-08-02T06:32:55;25.10;99.90
37276;DHT22;23166;51.150;21.620;2022-08-02T06:35:24;25.30;99.90
37276;DHT22;23166;51.150;21.620;2022-08-02T06:37:58;25.40;99.90
37276;DHT22;23166;51.150;21.620;2022-08-02T06:40:33;25.30;99.90
37276;DHT22;23166;51.150;21.620;2022-08-02T06:43:07;25.30;99.90
37276;DHT22;23166;51.150;21.620;2022-08-02T06:45:33;25.30;99.90
37276;DHT22;23166;51.150;21.620;2022-08-02T06:48:00;25.30;99.90
37276;DHT22;23166;51.150;21.620;2022-08-02T06:50:26;25.40;99.90
37276;DHT22;23166;51.150;21.620;2022-08-02T06:52:53;25.40;99.90
37276;DHT22;23166;51.150;21.620;2022-08-02T06:55:19;25.50;99.90
37276;DHT22;23166;51.150;21.620;2022-08-02T06:57:46;25.50;99.90
37276;DHT22;23166;51.150;21.620;2022-08-02T07:00:13;25.70;99.90
37276;DHT22;23166;51.150;21.620;2022-08-02T07:02:39;25.80;99.90
37276;DHT22;23166;51.150;21.620;2022-08-02T07:05:07;25.80;99.90
37276;DHT22;23166;51.150;21.620;2022-08-02T07:07:34;25.80;99.90
37276;DHT22;23166;51.150;21.620;2022-08-02T07:10:00;25.80;99.90
37276;DHT22;23166;51.150;21.620;2022-08-02T07:12:30;25.70;99.90
37276;DHT22;23166;51.150;21.620;2022-08-02T07:15:03;25.70;99.90
37276;DHT22;23166;51.150;21.620;2022-08-02T07:17:30;25.70;99.90
37276;DHT22;23166;51.150;21.620;2022-08-02T07:19:57;25.70;99.90
37276;DHT22;23166;51.150;21.620;2022-08-02T07:22:24;25.70;99.90
37276;DHT22;23166;51.150;21.620;2022-08-02T07:24:52;25.50;99.90
37276;DHT22;23166;51.150;21.620;2022-08-02T07:27:19;25.50;99.90
37276;DHT22;23166;51.150;21.620;2022-08-02T07:29:46;25.40;99.90
37276;DHT22;23166;51.150;21.620;2022-08-02T07:32:15;25.30;99.90
37276;DHT22;23166;51.150;21.620;2022-08-02T07:34:42;25.20;99.90
37276;DHT22;23166;51.150;21.620;2022-08-02T07:37:08;25.20;99.90
37276;DHT22;23166;51.150;21.620;2022-08-02T07:39:35;25.30;99.90
37276;DHT22;23166;51.150;21.620;2022-08-02T07:42:01;25.40;99.90
37276;DHT22;23166;51.150;21.620;2022-08-02T07:44:27;25.50;99.90
37276;DHT22;23166;51.150;21.620;2022-08-02T07:46:56;25.60;99.90
37276;DHT22;23166;51.150;21.620;2022-08-02T07:49:22;25.70;99.90
37276;DHT22;23166;51.150;21.620;2022-08-02T07:51:48;25.80;99.90
37276;DHT22;23166;51.150;21.620;2022-08-02T07:54:15;25.80;99.90
37276;DHT22;23166;51.150;21.620;2022-08-02T07:56:42;25.70;99.90
37276;DHT22;23166;51.150;21.620;2022-08-02T07:59:08;25.60;99.90
37276;DHT22;23166;51.150;21.620;2022-08-02T08:01:36;25.60;99.90
37276;DHT22;23166;51.150;21.620;2022-08-02T08:04:03;25.60;99.90
37276;DHT22;23166;51.150;21.620;2022-08-02T08:06:29;25.40;99.90
37276;DHT22;23166;51.150;21.620;2022-08-02T08:08:57;25.30;99.90
37276;DHT22;23166;51.150;21.620;2022-08-02T08:11:23;25.30;99.90
37276;DHT22;23166;51.150;21.620;2022-08-02T08:13:50;25.20;99.90
37276;DHT22;23166;51.150;21.620;2022-08-02T08:16:17;25.20;99.90
37276;DHT22;23166;51.150;21.620;2022-08-02T08:18:43;25.20;99.90
37276;DHT22;23166;51.150;21.620;2022-08-02T08:21:09;25.30;99.90
37276;DHT22;23166;51.150;21.620;2022-08-02T08:23:36;25.40;99.90
37276;DHT22;23166;51.150;21.620;2022-08-02T08:26:02;25.40;99.90
37276;DHT22;23166;51.150;21.620;2022-08-02T08:28:29;25.50;99.90
37276;DHT22;23166;51.150;21.620;2022-08-02T08:30:55;25.50;99.90
37276;DHT22;23166;51.150;21.620;2022-08-02T08:33:22;25.50;99.90
37276;DHT22;23166;51.150;21.620;2022-08-02T08:35:48;25.70;99.90
37276;DHT22;23166;51.150;21.620;2022-08-02T08:38:15;25.80;99.90
37276;DHT22;23166;51.150;21.620;2022-08-02T08:40:41;26.00;99.90
37276;DHT22;23166;51.150;21.620;2022-08-02T08:43:12;26.00;99.90
37276;DHT22;23166;51.150;21.620;2022-08-02T08:45:42;26.10;99.90
37276;DHT22;23166;51.150;21.620;2022-08-02T08:48:13;26.10;99.90
37276;DHT22;23166;51.150;21.620;2022-08-02T08:50:49;26.10;99.90
37276;DHT22;23166;51.150;21.620;2022-08-02T08:53:19;26.10;99.90
37276;DHT22;23166;51.150;21.620;2022-08-02T08:55:47;26.10;99.90
37276;DHT22;23166;51.150;21.620;2022-08-02T08:58:14;26.10;99.90
37276;DHT22;23166;51.150;21.620;2022-08-02T09:00:40;26.00;99.90
37276;DHT22;23166;51.150;21.620;2022-08-02T09:03:07;26.00;99.90
37276;DHT22;23166;51.150;21.620;2022-08-02T09:05:36;26.10;99.90
37276;DHT22;23166;51.150;21.620;2022-08-02T09:08:03;26.30;99.90
37276;DHT22;23166;51.150;21.620;2022-08-02T09:15:39;26.70;99.90
37276;DHT22;23166;51.150;21.620;2022-08-02T09:18:06;26.60;99.90
37276;DHT22;23166;51.150;21.620;2022-08-02T09:20:34;26.60;99.90
37276;DHT22;23166;51.150;21.620;2022-08-02T09:23:04;26.70;99.90
37276;DHT22;23166;51.150;21.620;2022-08-02T09:25:31;26.80;99.90
37276;DHT22;23166;51.150;21.620;2022-08-02T09:27:58;26.90;99.90
37276;DHT22;23166;51.150;21.620;2022-08-02T09:30:25;27.10;99.90
37276;DHT22;23166;51.150;21.620;2022-08-02T09:32:52;27.20;96.90
37276;DHT22;23166;51.150;21.620;2022-08-02T09:35:37;27.30;97.40
37276;DHT22;23166;51.150;21.620;2022-08-02T09:38:09;27.40;96.40
37276;DHT22;23166;51.150;21.620;2022-08-02T09:40:36;27.50;94.80
37276;DHT22;23166;51.150;21.620;2022-08-02T09:43:05;27.60;93.10
37276;DHT22;23166;51.150;21.620;2022-08-02T09:45:33;27.60;91.00
37276;DHT22;23166;51.150;21.620;2022-08-02T09:48:07;27.70;93.20
37276;DHT22;23166;51.150;21.620;2022-08-02T09:50:36;27.90;93.00
37276;DHT22;23166;51.150;21.620;2022-08-02T09:53:03;28.10;93.50
37276;DHT22;23166;51.150;21.620;2022-08-02T09:55:29;28.40;92.40
37276;DHT22;23166;51.150;21.620;2022-08-02T09:57:56;28.60;90.60
37276;DHT22;23166;51.150;21.620;2022-08-02T10:00:22;28.70;86.60
37276;DHT22;23166;51.150;21.620;2022-08-02T10:03:08;28.90;88.30
37276;DHT22;23166;51.150;21.620;2022-08-02T10:05:53;29.00;88.10
37276;DHT22;23166;51.150;21.620;2022-08-02T10:08:21;29.10;86.00
37276;DHT22;23166;51.150;21.620;2022-08-02T10:10:47;29.00;85.90
37276;DHT22;23166;51.150;21.620;2022-08-02T10:13:14;29.00;87.20
37276;DHT22;23166;51.150;21.620;2022-08-02T10:15:40;28.80;86.10
37276;DHT22;23166;51.150;21.620;2022-08-02T10:18:07;28.80;89.30
37276;DHT22;23166;51.150;21.620;2022-08-02T10:20:39;28.70;88.30
37276;DHT22;23166;51.150;21.620;2022-08-02T10:23:02;28.60;89.40
37276;DHT22;23166;51.150;21.620;2022-08-02T10:25:30;28.50;90.80
37276;DHT22;23166;51.150;21.620;2022-08-02T10:27:57;28.40;90.90
37276;DHT22;23166;51.150;21.620;2022-08-02T10:30:25;28.30;91.20
37276;DHT22;23166;51.150;21.620;2022-08-02T10:32:53;28.20;90.80
37276;DHT22;23166;51.150;21.620;2022-08-02T10:35:22;28.20;91.20
37276;DHT22;23166;51.150;21.620;2022-08-02T10:38:05;28.20;92.10
37276;DHT22;23166;51.150;21.620;2022-08-02T10:40:50;28.30;92.90
37276;DHT22;23166;51.150;21.620;2022-08-02T10:49:18;28.50;89.00
37276;DHT22;23166;51.150;21.620;2022-08-02T10:56:59;28.80;88.20
37276;DHT22;23166;51.150;21.620;2022-08-02T10:59:32;28.80;86.10
37276;DHT22;23166;51.150;21.620;2022-08-02T11:02:00;28.90;85.90
37276;DHT22;23166;51.150;21.620;2022-08-02T11:07:14;29.10;87.20
37276;DHT22;23166;51.150;21.620;2022-08-02T11:09:43;29.20;87.60
37276;DHT22;23166;51.150;21.620;2022-08-02T11:12:18;29.40;86.30
37276;DHT22;23166;51.150;21.620;2022-08-02T11:14:57;29.40;85.40
37276;DHT22;23166;51.150;21.620;2022-08-02T11:17:16;29.50;86.00
37276;DHT22;23166;51.150;21.620;2022-08-02T11:20:14;29.50;85.20
37276;DHT22;23166;51.150;21.620;2022-08-02T11:22:43;29.50;86.60
37276;DHT22;23166;51.150;21.620;2022-08-02T11:27:57;29.10;88.20
37276;DHT22;23166;51.150;21.620;2022-08-02T11:30:25;28.80;89.50
37276;DHT22;23166;51.150;21.620;2022-08-02T11:32:57;28.70;89.30
37276;DHT22;23166;51.150;21.620;2022-08-02T11:35:32;28.50;89.60
37276;DHT22;23166;51.150;21.620;2022-08-02T11:40:45;28.20;90.50
37276;DHT22;23166;51.150;21.620;2022-08-02T11:43:22;28.10;90.90
37276;DHT22;23166;51.150;21.620;2022-08-02T11:45:45;28.20;87.90
37276;DHT22;23166;51.150;21.620;2022-08-02T11:48:11;28.40;89.30
37276;DHT22;23166;51.150;21.620;2022-08-02T11:50:38;28.60;91.00
37276;DHT22;23166;51.150;21.620;2022-08-02T11:53:16;28.80;90.30
37276;DHT22;23166;51.150;21.620;2022-08-02T11:55:43;29.10;85.60
37276;DHT22;23166;51.150;21.620;2022-08-02T11:58:09;29.20;84.50
37276;DHT22;23166;51.150;21.620;2022-08-02T12:00:36;29.20;84.00
37276;DHT22;23166;51.150;21.620;2022-08-02T12:03:03;29.20;83.60
37276;DHT22;23166;51.150;21.620;2022-08-02T12:05:29;29.30;84.90
37276;DHT22;23166;51.150;21.620;2022-08-02T12:07:57;29.30;86.20
37276;DHT22;23166;51.150;21.620;2022-08-02T12:10:24;29.40;86.80
37276;DHT22;23166;51.150;21.620;2022-08-02T12:12:57;29.40;85.60
37276;DHT22;23166;51.150;21.620;2022-08-02T12:15:36;29.50;84.40
37276;DHT22;23166;51.150;21.620;2022-08-02T12:18:07;29.50;85.10
37276;DHT22;23166;51.150;21.620;2022-08-02T12:20:53;29.30;84.70
37276;DHT22;23166;51.150;21.620;2022-08-02T12:23:19;29.20;84.60
37276;DHT22;23166;51.150;21.620;2022-08-02T12:28:32;28.80;87.00
37276;DHT22;23166;51.150;21.620;2022-08-02T12:30:58;28.50;88.60
37276;DHT22;23166;51.150;21.620;2022-08-02T12:33:28;28.30;89.50
37276;DHT22;23166;51.150;21.620;2022-08-02T12:35:55;28.10;90.00
37276;DHT22;23166;51.150;21.620;2022-08-02T12:38:21;27.90;90.70
37276;DHT22;23166;51.150;21.620;2022-08-02T12:40:48;27.80;91.00
37276;DHT22;23166;51.150;21.620;2022-08-02T12:43:20;27.60;91.30
37276;DHT22;23166;51.150;21.620;2022-08-02T12:45:49;27.50;91.40
37276;DHT22;23166;51.150;21.620;2022-08-02T12:53:46;27.30;92.50
37276;DHT22;23166;51.150;21.620;2022-08-02T12:58:59;27.30;93.30
37276;DHT22;23166;51.150;21.620;2022-08-02T13:01:27;27.30;92.80
37276;DHT22;23166;51.150;21.620;2022-08-02T13:03:54;27.30;93.00
37276;DHT22;23166;51.150;21.620;2022-08-02T13:06:22;27.30;92.80
37276;DHT22;23166;51.150;21.620;2022-08-02T13:08:49;27.30;93.30
37276;DHT22;23166;51.150;21.620;2022-08-02T13:11:15;27.30;92.80
37276;DHT22;23166;51.150;21.620;2022-08-02T13:13:42;27.30;93.10
37276;DHT22;23166;51.150;21.620;2022-08-02T13:16:09;27.40;92.60
37276;DHT22;23166;51.150;21.620;2022-08-02T13:18:37;27.40;91.70
37276;DHT22;23166;51.150;21.620;2022-08-02T13:21:04;27.40;92.20
37276;DHT22;23166;51.150;21.620;2022-08-02T13:23:33;27.50;91.30
37276;DHT22;23166;51.150;21.620;2022-08-02T13:26:01;27.60;91.40
37276;DHT22;23166;51.150;21.620;2022-08-02T13:28:27;27.70;91.40
37276;DHT22;23166;51.150;21.620;2022-08-02T13:30:54;27.70;90.80
37276;DHT22;23166;51.150;21.620;2022-08-02T13:33:20;27.70;90.40
37276;DHT22;23166;51.150;21.620;2022-08-02T13:35:47;27.70;90.90
37276;DHT22;23166;51.150;21.620;2022-08-02T13:38:14;27.70;90.80
37276;DHT22;23166;51.150;21.620;2022-08-02T14:53:27;26.60;95.80
37276;DHT22;23166;51.150;21.620;2022-08-02T14:55:53;26.60;98.40
37276;DHT22;23166;51.150;21.620;2022-08-02T14:58:20;26.70;98.10
37276;DHT22;23166;51.150;21.620;2022-08-02T15:00:46;26.70;97.90
37276;DHT22;23166;51.150;21.620;2022-08-02T15:03:13;26.70;97.70
37276;DHT22;23166;51.150;21.620;2022-08-02T15:05:39;26.70;97.50
37276;DHT22;23166;51.150;21.620;2022-08-02T15:08:06;26.70;97.70
37276;DHT22;23166;51.150;21.620;2022-08-02T15:10:32;26.70;97.50
37276;DHT22;23166;51.150;21.620;2022-08-02T15:12:58;26.70;97.30
37276;DHT22;23166;51.150;21.620;2022-08-02T15:15:25;26.70;97.90
37276;DHT22;23166;51.150;21.620;2022-08-02T15:17:51;26.70;98.80
37276;DHT22;23166;51.150;21.620;2022-08-02T15:20:18;26.70;99.00
37276;DHT22;23166;51.150;21.620;2022-08-02T15:22:44;26.70;99.10
37276;DHT22;23166;51.150;21.620;2022-08-02T15:25:11;26.70;99.40
37276;DHT22;23166;51.150;21.620;2022-08-02T15:27:37;26.80;99.40
37276;DHT22;23166;51.150;21.620;2022-08-02T15:30:04;26.90;99.10
37276;DHT22;23166;51.150;21.620;2022-08-02T15:32:31;26.80;98.50
37276;DHT22;23166;51.150;21.620;2022-08-02T15:34:57;26.80;98.80
37276;DHT22;23166;51.150;21.620;2022-08-02T15:37:24;26.80;99.70
37276;DHT22;23166;51.150;21.620;2022-08-02T15:39:51;26.80;99.50
37276;DHT22;23166;51.150;21.620;2022-08-02T15:42:17;26.70;99.70
37276;DHT22;23166;51.150;21.620;2022-08-02T15:44:44;26.60;99.90
37276;DHT22;23166;51.150;21.620;2022-08-02T15:47:11;26.60;99.90
37276;DHT22;23166;51.150;21.620;2022-08-02T15:49:37;26.50;99.90
37276;DHT22;23166;51.150;21.620;2022-08-02T15:52:04;26.50;99.90
37276;DHT22;23166;51.150;21.620;2022-08-02T15:54:30;26.50;99.90
37276;DHT22;23166;51.150;21.620;2022-08-02T15:56:56;26.40;99.90
37276;DHT22;23166;51.150;21.620;2022-08-02T15:59:23;26.40;99.90
37276;DHT22;23166;51.150;21.620;2022-08-02T16:01:49;26.40;99.90
37276;DHT22;23166;51.150;21.620;2022-08-02T16:04:16;26.30;99.90
37276;DHT22;23166;51.150;21.620;2022-08-02T16:06:43;26.30;99.90
37276;DHT22;23166;51.150;21.620;2022-08-02T16:09:09;26.30;99.90
37276;DHT22;23166;51.150;21.620;2022-08-02T16:11:36;26.30;99.90
37276;DHT22;23166;51.150;21.620;2022-08-02T16:14:02;26.30;99.90
37276;DHT22;23166;51.150;21.620;2022-08-02T16:16:34;26.40;99.90
37276;DHT22;23166;51.150;21.620;2022-08-02T16:18:58;26.50;99.90
37276;DHT22;23166;51.150;21.620;2022-08-02T16:21:25;26.50;99.90
37276;DHT22;23166;51.150;21.620;2022-08-02T16:23:53;26.60;99.90
37276;DHT22;23166;51.150;21.620;2022-08-02T16:26:22;26.70;99.90
37276;DHT22;23166;51.150;21.620;2022-08-02T16:28:52;26.70;99.90
37276;DHT22;23166;51.150;21.620;2022-08-02T16:31:18;26.60;99.90
37276;DHT22;23166;51.150;21.620;2022-08-02T16:33:45;26.60;99.90
37276;DHT22;23166;51.150;21.620;2022-08-02T16:36:13;26.50;99.90
37276;DHT22;23166;51.150;21.620;2022-08-02T16:38:40;26.50;99.90
37276;DHT22;23166;51.150;21.620;2022-08-02T16:41:06;26.40;99.90
37276;DHT22;23166;51.150;21.620;2022-08-02T16:43:33;26.30;99.90
37276;DHT22;23166;51.150;21.620;2022-08-02T16:46:00;26.20;99.90
37276;DHT22;23166;51.150;21.620;2022-08-02T16:48:26;26.20;99.90
37276;DHT22;23166;51.150;21.620;2022-08-02T16:50:53;26.10;99.90
37276;DHT22;23166;51.150;21.620;2022-08-02T16:53:19;26.00;99.90
37276;DHT22;23166;51.150;21.620;2022-08-02T16:55:46;25.90;99.90
37276;DHT22;23166;51.150;21.620;2022-08-02T16:58:12;25.90;99.90
37276;DHT22;23166;51.150;21.620;2022-08-02T17:00:39;25.90;99.90
37276;DHT22;23166;51.150;21.620;2022-08-02T17:03:05;25.80;99.90
37276;DHT22;23166;51.150;21.620;2022-08-02T17:05:33;25.70;99.90
37276;DHT22;23166;51.150;21.620;2022-08-02T17:08:02;25.70;99.90
37276;DHT22;23166;51.150;21.620;2022-08-02T17:10:29;25.60;99.90
37276;DHT22;23166;51.150;21.620;2022-08-02T17:12:56;25.60;99.90
37276;DHT22;23166;51.150;21.620;2022-08-02T17:15:23;25.60;99.90
37276;DHT22;23166;51.150;21.620;2022-08-02T17:17:49;25.60;99.90
37276;DHT22;23166;51.150;21.620;2022-08-02T17:20:17;25.50;99.90
37276;DHT22;23166;51.150;21.620;2022-08-02T17:22:43;25.40;99.90
37276;DHT22;23166;51.150;21.620;2022-08-02T17:25:10;25.40;99.90
37276;DHT22;23166;51.150;21.620;2022-08-02T17:27:38;25.40;99.90
37276;DHT22;23166;51.150;21.620;2022-08-02T17:30:06;25.50;99.90